sensor_id;sensor_type;location;lat;lon;timestamp;P1;durP1;ratioP1;P2;durP2;ratioP2
52318;SDS011;38258;51.148;14.068;2022-08-14T00:02:12;14.15;;;8.13;;
52318;SDS011;38258;51.148;14.068;2022-08-14T00:04:39;13.07;;;8.23;;
52318;SDS011;38258;51.148;14.068;2022-08-14T00:07:06;14.05;;;8.32;;
52318;SDS011;38258;51.148;14.068;2022-08-14T00:09:32;12.43;;;7.80;;
52318;SDS011;38258;51.148;14.068;2022-08-14T00:11:59;12.10;;;7.63;;
52318;SDS011;38258;51.148;14.068;2022-08-14T00:14:27;14.05;;;8.60;;
52318;SDS011;38258;51.148;14.068;2022-08-14T00:16:53;14.10;;;7.93;;
52318;SDS011;38258;51.148;14.068;2022-08-14T00:19:20;12.80;;;7.90;;
52318;SDS011;38258;51.148;14.068;2022-08-14T00:21:47;12.30;;;7.35;;
52318;SDS011;38258;51.148;14.068;2022-08-14T00:24:14;14.93;;;8.20;;
52318;SDS011;38258;51.148;14.068;2022-08-14T00:26:41;11.93;;;7.43;;
52318;SDS011;38258;51.148;14.068;2022-08-14T00:29:07;13.45;;;7.85;;
52318;SDS011;38258;51.148;14.068;2022-08-14T00:31:35;11.77;;;7.68;;
52318;SDS011;38258;51.148;14.068;2022-08-14T00:34:02;13.70;;;8.15;;
52318;SDS011;38258;51.148;14.068;2022-08-14T00:36:28;13.63;;;7.63;;
52318;SDS011;38258;51.148;14.068;2022-08-14T00:38:55;13.48;;;8.00;;
52318;SDS011;38258;51.148;14.068;2022-08-14T00:41:21;13.15;;;7.55;;
52318;SDS011;38258;51.148;14.068;2022-08-14T00:43:48;13.80;;;7.72;;
52318;SDS011;38258;51.148;14.068;2022-08-14T00:46:15;12.32;;;7.65;;
52318;SDS011;38258;51.148;14.068;2022-08-14T00:48:42;13.43;;;7.43;;
52318;SDS011;38258;51.148;14.068;2022-08-14T00:51:09;12.30;;;7.07;;
52318;SDS011;38258;51.148;14.068;2022-08-14T00:53:36;12.48;;;7.90;;
52318;SDS011;38258;51.148;14.068;2022-08-14T00:56:04;15.55;;;8.20;;
52318;SDS011;38258;51.148;14.068;2022-08-14T00:58:31;14.25;;;8.05;;
52318;SDS011;38258;51.148;14.068;2022-08-14T01:01:00;13.48;;;8.70;;
52318;SDS011;38258;51.148;14.068;2022-08-14T01:03:30;15.15;;;8.93;;
52318;SDS011;38258;51.148;14.068;2022-08-14T01:08:33;13.40;;;7.80;;
52318;SDS011;38258;51.148;14.068;2022-08-14T01:11:03;14.52;;;8.55;;
52318;SDS011;38258;51.148;14.068;2022-08-14T01:13:33;13.23;;;7.45;;
52318;SDS011;38258;51.148;14.068;2022-08-14T01:16:03;13.55;;;7.90;;
52318;SDS011;38258;51.148;14.068;2022-08-14T01:18:31;14.70;;;8.40;;
52318;SDS011;38258;51.148;14.068;2022-08-14T01:23:51;13.93;;;8.27;;
52318;SDS011;38258;51.148;14.068;2022-08-14T01:26:20;14.70;;;8.18;;
52318;SDS011;38258;51.148;14.068;2022-08-14T01:28:49;14.80;;;8.50;;
52318;SDS011;38258;51.148;14.068;2022-08-14T01:31:20;14.55;;;8.70;;
52318;SDS011;38258;51.148;14.068;2022-08-14T01:33:48;14.20;;;8.15;;
52318;SDS011;38258;51.148;14.068;2022-08-14T01:36:18;14.20;;;7.95;;
52318;SDS011;38258;51.148;14.068;2022-08-14T01:38:46;12.65;;;7.70;;
52318;SDS011;38258;51.148;14.068;2022-08-14T01:41:15;13.10;;;7.82;;
52318;SDS011;38258;51.148;14.068;2022-08-14T01:43:45;11.68;;;7.40;;
52318;SDS011;38258;51.148;14.068;2022-08-14T01:46:14;13.60;;;8.15;;
52318;SDS011;38258;51.148;14.068;2022-08-14T01:48:41;13.13;;;7.63;;
52318;SDS011;38258;51.148;14.068;2022-08-14T01:51:09;14.98;;;8.70;;
52318;SDS011;38258;51.148;14.068;2022-08-14T01:53:38;12.38;;;7.25;;
52318;SDS011;38258;51.148;14.068;2022-08-14T01:56:06;13.38;;;8.10;;
52318;SDS011;38258;51.148;14.068;2022-08-14T01:58:33;14.55;;;7.93;;
52318;SDS011;38258;51.148;14.068;2022-08-14T02:00:59;14.13;;;8.38;;
52318;SDS011;38258;51.148;14.068;2022-08-14T02:03:28;15.48;;;8.82;;
52318;SDS011;38258;51.148;14.068;2022-08-14T02:05:56;13.85;;;7.68;;
52318;SDS011;38258;51.148;14.068;2022-08-14T02:08:25;17.05;;;8.20;;
52318;SDS011;38258;51.148;14.068;2022-08-14T02:10:54;15.35;;;8.43;;
52318;SDS011;38258;51.148;14.068;2022-08-14T02:13:37;15.52;;;8.05;;
52318;SDS011;38258;51.148;14.068;2022-08-14T02:16:04;15.07;;;8.23;;
52318;SDS011;38258;51.148;14.068;2022-08-14T02:18:31;15.85;;;7.80;;
52318;SDS011;38258;51.148;14.068;2022-08-14T02:20:58;16.10;;;7.70;;
52318;SDS011;38258;51.148;14.068;2022-08-14T02:23:24;15.05;;;8.45;;
52318;SDS011;38258;51.148;14.068;2022-08-14T02:25:51;15.25;;;8.57;;
52318;SDS011;38258;51.148;14.068;2022-08-14T02:28:17;16.73;;;9.65;;
52318;SDS011;38258;51.148;14.068;2022-08-14T02:30:45;18.10;;;9.80;;
52318;SDS011;38258;51.148;14.068;2022-08-14T02:33:11;17.42;;;9.77;;
52318;SDS011;38258;51.148;14.068;2022-08-14T02:35:39;19.73;;;9.32;;
52318;SDS011;38258;51.148;14.068;2022-08-14T02:38:07;16.73;;;9.38;;
52318;SDS011;38258;51.148;14.068;2022-08-14T02:40:34;17.50;;;10.07;;
52318;SDS011;38258;51.148;14.068;2022-08-14T02:43:02;13.90;;;7.82;;
52318;SDS011;38258;51.148;14.068;2022-08-14T02:45:29;17.45;;;9.90;;
52318;SDS011;38258;51.148;14.068;2022-08-14T02:47:59;16.88;;;9.90;;
52318;SDS011;38258;51.148;14.068;2022-08-14T02:50:27;15.82;;;9.32;;
52318;SDS011;38258;51.148;14.068;2022-08-14T02:52:53;17.77;;;9.05;;
52318;SDS011;38258;51.148;14.068;2022-08-14T02:55:20;14.18;;;8.80;;
52318;SDS011;38258;51.148;14.068;2022-08-14T02:57:48;15.88;;;8.88;;
52318;SDS011;38258;51.148;14.068;2022-08-14T03:00:16;16.17;;;8.65;;
52318;SDS011;38258;51.148;14.068;2022-08-14T03:02:43;14.98;;;8.32;;
52318;SDS011;38258;51.148;14.068;2022-08-14T03:05:11;14.25;;;8.68;;
52318;SDS011;38258;51.148;14.068;2022-08-14T03:07:37;13.65;;;8.00;;
52318;SDS011;38258;51.148;14.068;2022-08-14T03:10:05;15.35;;;9.25;;
52318;SDS011;38258;51.148;14.068;2022-08-14T03:12:32;14.43;;;7.82;;
52318;SDS011;38258;51.148;14.068;2022-08-14T03:14:59;14.63;;;8.52;;
52318;SDS011;38258;51.148;14.068;2022-08-14T03:17:27;15.27;;;8.80;;
52318;SDS011;38258;51.148;14.068;2022-08-14T03:19:54;15.10;;;8.60;;
52318;SDS011;38258;51.148;14.068;2022-08-14T03:22:21;14.85;;;8.75;;
52318;SDS011;38258;51.148;14.068;2022-08-14T03:24:48;13.90;;;8.32;;
52318;SDS011;38258;51.148;14.068;2022-08-14T03:27:14;12.55;;;8.10;;
52318;SDS011;38258;51.148;14.068;2022-08-14T03:29:41;13.13;;;7.32;;
52318;SDS011;38258;51.148;14.068;2022-08-14T03:32:08;15.18;;;8.55;;
52318;SDS011;38258;51.148;14.068;2022-08-14T03:34:34;15.25;;;8.95;;
52318;SDS011;38258;51.148;14.068;2022-08-14T03:37:01;14.43;;;8.35;;
52318;SDS011;38258;51.148;14.068;2022-08-14T03:39:29;16.42;;;8.77;;
52318;SDS011;38258;51.148;14.068;2022-08-14T03:41:55;14.98;;;8.43;;
52318;SDS011;38258;51.148;14.068;2022-08-14T03:44:22;14.75;;;8.07;;
52318;SDS011;38258;51.148;14.068;2022-08-14T03:46:50;13.90;;;8.65;;
52318;SDS011;38258;51.148;14.068;2022-08-14T03:49:16;14.55;;;8.30;;
52318;SDS011;38258;51.148;14.068;2022-08-14T03:51:47;16.45;;;8.88;;
52318;SDS011;38258;51.148;14.068;2022-08-14T03:54:14;14.73;;;8.77;;
52318;SDS011;38258;51.148;14.068;2022-08-14T03:56:42;16.30;;;8.75;;
52318;SDS011;38258;51.148;14.068;2022-08-14T03:59:09;14.27;;;8.23;;
52318;SDS011;38258;51.148;14.068;2022-08-14T04:01:38;15.82;;;8.48;;
52318;SDS011;38258;51.148;14.068;2022-08-14T04:04:05;14.88;;;8.77;;
52318;SDS011;38258;51.148;14.068;2022-08-14T04:06:33;14.70;;;8.35;;
52318;SDS011;38258;51.148;14.068;2022-08-14T04:09:02;15.20;;;8.90;;
52318;SDS011;38258;51.148;14.068;2022-08-14T04:11:29;16.52;;;8.85;;
52318;SDS011;38258;51.148;14.068;2022-08-14T04:13:57;17.05;;;9.57;;
52318;SDS011;38258;51.148;14.068;2022-08-14T04:16:25;17.73;;;9.30;;
52318;SDS011;38258;51.148;14.068;2022-08-14T04:18:52;17.77;;;9.40;;
52318;SDS011;38258;51.148;14.068;2022-08-14T04:21:21;15.35;;;8.73;;
52318;SDS011;38258;51.148;14.068;2022-08-14T04:23:50;15.68;;;8.88;;
52318;SDS011;38258;51.148;14.068;2022-08-14T04:26:18;15.45;;;9.60;;
52318;SDS011;38258;51.148;14.068;2022-08-14T04:28:46;15.90;;;8.68;;
52318;SDS011;38258;51.148;14.068;2022-08-14T04:31:16;17.65;;;9.73;;
52318;SDS011;38258;51.148;14.068;2022-08-14T04:33:44;15.50;;;9.55;;
52318;SDS011;38258;51.148;14.068;2022-08-14T04:36:10;16.55;;;9.57;;
52318;SDS011;38258;51.148;14.068;2022-08-14T04:38:37;16.38;;;9.43;;
52318;SDS011;38258;51.148;14.068;2022-08-14T04:44:05;15.52;;;9.57;;
52318;SDS011;38258;51.148;14.068;2022-08-14T04:46:33;17.83;;;9.57;;
52318;SDS011;38258;51.148;14.068;2022-08-14T04:49:01;13.95;;;8.93;;
52318;SDS011;38258;51.148;14.068;2022-08-14T04:51:26;16.55;;;8.93;;
52318;SDS011;38258;51.148;14.068;2022-08-14T04:53:53;17.65;;;9.43;;
52318;SDS011;38258;51.148;14.068;2022-08-14T04:56:21;17.83;;;9.68;;
52318;SDS011;38258;51.148;14.068;2022-08-14T04:58:49;16.80;;;9.75;;
52318;SDS011;38258;51.148;14.068;2022-08-14T05:01:20;16.85;;;9.70;;
52318;SDS011;38258;51.148;14.068;2022-08-14T05:03:47;15.38;;;9.02;;
52318;SDS011;38258;51.148;14.068;2022-08-14T05:06:14;14.80;;;9.00;;
52318;SDS011;38258;51.148;14.068;2022-08-14T05:08:41;14.20;;;8.82;;
52318;SDS011;38258;51.148;14.068;2022-08-14T05:11:07;14.95;;;9.45;;
52318;SDS011;38258;51.148;14.068;2022-08-14T05:13:35;15.10;;;8.95;;
52318;SDS011;38258;51.148;14.068;2022-08-14T05:16:03;15.05;;;9.20;;
52318;SDS011;38258;51.148;14.068;2022-08-14T05:18:33;14.95;;;9.10;;
52318;SDS011;38258;51.148;14.068;2022-08-14T05:21:03;15.85;;;9.27;;
52318;SDS011;38258;51.148;14.068;2022-08-14T05:23:31;17.42;;;9.57;;
52318;SDS011;38258;51.148;14.068;2022-08-14T05:26:00;16.25;;;9.32;;
52318;SDS011;38258;51.148;14.068;2022-08-14T05:28:28;17.15;;;10.18;;
52318;SDS011;38258;51.148;14.068;2022-08-14T05:30:59;19.40;;;11.63;;
52318;SDS011;38258;51.148;14.068;2022-08-14T05:33:28;16.30;;;10.45;;
52318;SDS011;38258;51.148;14.068;2022-08-14T05:35:58;18.27;;;10.32;;
52318;SDS011;38258;51.148;14.068;2022-08-14T05:38:28;18.08;;;11.20;;
52318;SDS011;38258;51.148;14.068;2022-08-14T05:40:58;16.33;;;10.50;;
52318;SDS011;38258;51.148;14.068;2022-08-14T05:43:26;18.20;;;11.57;;
52318;SDS011;38258;51.148;14.068;2022-08-14T05:45:53;16.65;;;11.05;;
52318;SDS011;38258;51.148;14.068;2022-08-14T05:48:20;16.75;;;11.38;;
52318;SDS011;38258;51.148;14.068;2022-08-14T05:50:46;17.17;;;11.07;;
52318;SDS011;38258;51.148;14.068;2022-08-14T05:53:13;19.42;;;11.35;;
52318;SDS011;38258;51.148;14.068;2022-08-14T05:55:41;18.02;;;11.63;;
52318;SDS011;38258;51.148;14.068;2022-08-14T05:58:08;21.63;;;11.73;;
52318;SDS011;38258;51.148;14.068;2022-08-14T06:00:36;20.15;;;11.75;;
52318;SDS011;38258;51.148;14.068;2022-08-14T06:03:05;15.38;;;10.48;;
52318;SDS011;38258;51.148;14.068;2022-08-14T06:05:33;16.38;;;10.52;;
52318;SDS011;38258;51.148;14.068;2022-08-14T06:08:00;16.02;;;10.15;;
52318;SDS011;38258;51.148;14.068;2022-08-14T06:10:28;16.20;;;10.32;;
52318;SDS011;38258;51.148;14.068;2022-08-14T06:12:57;14.05;;;9.95;;
52318;SDS011;38258;51.148;14.068;2022-08-14T06:15:26;15.38;;;9.70;;
52318;SDS011;38258;51.148;14.068;2022-08-14T06:17:53;15.07;;;9.68;;
52318;SDS011;38258;51.148;14.068;2022-08-14T06:20:21;14.23;;;9.40;;
52318;SDS011;38258;51.148;14.068;2022-08-14T06:22:48;14.93;;;9.88;;
52318;SDS011;38258;51.148;14.068;2022-08-14T06:25:16;14.77;;;9.68;;
52318;SDS011;38258;51.148;14.068;2022-08-14T06:27:43;14.13;;;9.43;;
52318;SDS011;38258;51.148;14.068;2022-08-14T06:30:13;14.60;;;9.95;;
52318;SDS011;38258;51.148;14.068;2022-08-14T06:32:42;13.25;;;9.40;;
52318;SDS011;38258;51.148;14.068;2022-08-14T06:35:10;11.35;;;8.70;;
52318;SDS011;38258;51.148;14.068;2022-08-14T06:37:39;12.70;;;8.65;;
52318;SDS011;38258;51.148;14.068;2022-08-14T06:40:08;12.80;;;8.35;;
52318;SDS011;38258;51.148;14.068;2022-08-14T06:42:36;12.68;;;8.70;;
52318;SDS011;38258;51.148;14.068;2022-08-14T06:45:04;13.27;;;9.27;;
52318;SDS011;38258;51.148;14.068;2022-08-14T06:47:33;14.30;;;8.70;;
52318;SDS011;38258;51.148;14.068;2022-08-14T06:50:01;12.50;;;8.60;;
52318;SDS011;38258;51.148;14.068;2022-08-14T06:52:28;12.35;;;8.35;;
52318;SDS011;38258;51.148;14.068;2022-08-14T06:54:55;11.52;;;8.05;;
52318;SDS011;38258;51.148;14.068;2022-08-14T06:57:22;12.13;;;7.75;;
52318;SDS011;38258;51.148;14.068;2022-08-14T06:59:49;11.40;;;7.70;;
52318;SDS011;38258;51.148;14.068;2022-08-14T07:02:16;10.55;;;7.65;;
52318;SDS011;38258;51.148;14.068;2022-08-14T07:05:02;11.18;;;7.60;;
52318;SDS011;38258;51.148;14.068;2022-08-14T07:07:47;11.48;;;7.50;;
52318;SDS011;38258;51.148;14.068;2022-08-14T07:10:13;10.23;;;7.47;;
52318;SDS011;38258;51.148;14.068;2022-08-14T07:12:40;10.18;;;7.38;;
52318;SDS011;38258;51.148;14.068;2022-08-14T07:15:07;10.80;;;7.95;;
52318;SDS011;38258;51.148;14.068;2022-08-14T07:17:42;10.30;;;7.15;;
52318;SDS011;38258;51.148;14.068;2022-08-14T07:20:11;12.23;;;8.00;;
52318;SDS011;38258;51.148;14.068;2022-08-14T07:22:38;10.75;;;7.30;;
52318;SDS011;38258;51.148;14.068;2022-08-14T07:25:05;12.50;;;7.13;;
52318;SDS011;38258;51.148;14.068;2022-08-14T07:27:32;11.13;;;6.93;;
52318;SDS011;38258;51.148;14.068;2022-08-14T07:30:00;8.35;;;6.18;;
52318;SDS011;38258;51.148;14.068;2022-08-14T07:32:28;8.20;;;6.22;;
52318;SDS011;38258;51.148;14.068;2022-08-14T07:34:55;9.18;;;6.10;;
52318;SDS011;38258;51.148;14.068;2022-08-14T07:37:23;7.95;;;6.20;;
52318;SDS011;38258;51.148;14.068;2022-08-14T07:39:50;7.35;;;5.80;;
52318;SDS011;38258;51.148;14.068;2022-08-14T07:42:17;8.27;;;6.07;;
52318;SDS011;38258;51.148;14.068;2022-08-14T07:44:43;9.13;;;6.15;;
52318;SDS011;38258;51.148;14.068;2022-08-14T07:47:10;8.52;;;5.57;;
52318;SDS011;38258;51.148;14.068;2022-08-14T07:49:37;7.85;;;5.93;;
52318;SDS011;38258;51.148;14.068;2022-08-14T07:52:04;8.10;;;5.82;;
52318;SDS011;38258;51.148;14.068;2022-08-14T07:54:33;8.50;;;6.13;;
52318;SDS011;38258;51.148;14.068;2022-08-14T07:57:01;9.10;;;6.72;;
52318;SDS011;38258;51.148;14.068;2022-08-14T07:59:28;8.32;;;5.78;;
52318;SDS011;38258;51.148;14.068;2022-08-14T08:01:54;8.68;;;6.05;;
52318;SDS011;38258;51.148;14.068;2022-08-14T08:04:22;7.65;;;6.03;;
52318;SDS011;38258;51.148;14.068;2022-08-14T08:06:51;7.85;;;6.20;;
52318;SDS011;38258;51.148;14.068;2022-08-14T08:09:19;8.27;;;6.10;;
52318;SDS011;38258;51.148;14.068;2022-08-14T08:11:51;8.93;;;6.10;;
52318;SDS011;38258;51.148;14.068;2022-08-14T08:14:19;9.43;;;5.95;;
52318;SDS011;38258;51.148;14.068;2022-08-14T08:16:46;6.63;;;5.65;;
52318;SDS011;38258;51.148;14.068;2022-08-14T08:19:13;7.95;;;6.10;;
52318;SDS011;38258;51.148;14.068;2022-08-14T08:21:43;9.07;;;6.35;;
52318;SDS011;38258;51.148;14.068;2022-08-14T08:24:11;8.43;;;6.20;;
52318;SDS011;38258;51.148;14.068;2022-08-14T08:26:38;7.78;;;5.70;;
52318;SDS011;38258;51.148;14.068;2022-08-14T08:29:06;7.32;;;5.85;;
52318;SDS011;38258;51.148;14.068;2022-08-14T08:31:44;7.80;;;6.05;;
52318;SDS011;38258;51.148;14.068;2022-08-14T08:34:12;8.02;;;6.32;;
52318;SDS011;38258;51.148;14.068;2022-08-14T08:36:39;7.43;;;6.13;;
52318;SDS011;38258;51.148;14.068;2022-08-14T08:39:06;8.00;;;5.72;;
52318;SDS011;38258;51.148;14.068;2022-08-14T08:41:41;7.93;;;5.90;;
52318;SDS011;38258;51.148;14.068;2022-08-14T08:44:11;8.20;;;6.50;;
52318;SDS011;38258;51.148;14.068;2022-08-14T08:46:38;8.63;;;6.50;;
52318;SDS011;38258;51.148;14.068;2022-08-14T08:49:06;8.40;;;6.22;;
52318;SDS011;38258;51.148;14.068;2022-08-14T08:51:35;7.80;;;6.28;;
52318;SDS011;38258;51.148;14.068;2022-08-14T08:54:04;8.63;;;6.57;;
52318;SDS011;38258;51.148;14.068;2022-08-14T08:56:33;7.43;;;6.22;;
52318;SDS011;38258;51.148;14.068;2022-08-14T08:59:17;8.18;;;6.30;;
52318;SDS011;38258;51.148;14.068;2022-08-14T09:01:47;8.40;;;6.50;;
52318;SDS011;38258;51.148;14.068;2022-08-14T09:04:15;7.68;;;6.25;;
52318;SDS011;38258;51.148;14.068;2022-08-14T09:06:43;8.63;;;6.47;;
52318;SDS011;38258;51.148;14.068;2022-08-14T09:09:20;7.68;;;6.57;;
52318;SDS011;38258;51.148;14.068;2022-08-14T09:11:47;7.68;;;5.68;;
52318;SDS011;38258;51.148;14.068;2022-08-14T09:14:14;8.07;;;5.93;;
52318;SDS011;38258;51.148;14.068;2022-08-14T09:16:42;7.93;;;5.63;;
52318;SDS011;38258;51.148;14.068;2022-08-14T09:19:10;7.47;;;5.85;;
52318;SDS011;38258;51.148;14.068;2022-08-14T09:21:37;9.38;;;6.15;;
52318;SDS011;38258;51.148;14.068;2022-08-14T09:24:04;8.18;;;6.35;;
52318;SDS011;38258;51.148;14.068;2022-08-14T09:26:33;7.85;;;5.80;;
52318;SDS011;38258;51.148;14.068;2022-08-14T09:29:00;6.88;;;5.80;;
52318;SDS011;38258;51.148;14.068;2022-08-14T09:31:27;7.32;;;5.93;;
52318;SDS011;38258;51.148;14.068;2022-08-14T09:34:00;7.07;;;5.97;;
52318;SDS011;38258;51.148;14.068;2022-08-14T09:36:41;7.35;;;5.80;;
52318;SDS011;38258;51.148;14.068;2022-08-14T09:39:20;6.20;;;5.40;;
52318;SDS011;38258;51.148;14.068;2022-08-14T09:42:01;7.07;;;5.90;;
52318;SDS011;38258;51.148;14.068;2022-08-14T09:44:41;8.10;;;5.63;;
52318;SDS011;38258;51.148;14.068;2022-08-14T09:47:13;7.18;;;6.03;;
52318;SDS011;38258;51.148;14.068;2022-08-14T09:49:42;7.07;;;6.18;;
52318;SDS011;38258;51.148;14.068;2022-08-14T09:52:10;8.00;;;5.90;;
52318;SDS011;38258;51.148;14.068;2022-08-14T09:54:38;7.22;;;6.13;;
52318;SDS011;38258;51.148;14.068;2022-08-14T09:57:07;9.82;;;6.45;;
52318;SDS011;38258;51.148;14.068;2022-08-14T09:59:39;8.60;;;6.10;;
52318;SDS011;38258;51.148;14.068;2022-08-14T10:02:18;7.18;;;5.60;;
52318;SDS011;38258;51.148;14.068;2022-08-14T10:04:58;6.20;;;5.45;;
52318;SDS011;38258;51.148;14.068;2022-08-14T10:07:30;8.77;;;6.18;;
52318;SDS011;38258;51.148;14.068;2022-08-14T10:09:57;8.02;;;6.50;;
52318;SDS011;38258;51.148;14.068;2022-08-14T10:12:25;7.07;;;6.30;;
52318;SDS011;38258;51.148;14.068;2022-08-14T10:14:54;7.55;;;6.10;;
52318;SDS011;38258;51.148;14.068;2022-08-14T10:17:21;8.07;;;6.63;;
52318;SDS011;38258;51.148;14.068;2022-08-14T10:19:52;9.77;;;6.55;;
52318;SDS011;38258;51.148;14.068;2022-08-14T10:22:24;7.57;;;6.75;;
52318;SDS011;38258;51.148;14.068;2022-08-14T10:24:54;8.15;;;5.85;;
52318;SDS011;38258;51.148;14.068;2022-08-14T10:27:22;8.10;;;6.03;;
52318;SDS011;38258;51.148;14.068;2022-08-14T10:29:51;7.32;;;5.13;;
52318;SDS011;38258;51.148;14.068;2022-08-14T10:32:21;7.40;;;6.43;;
52318;SDS011;38258;51.148;14.068;2022-08-14T10:34:50;7.82;;;6.57;;
52318;SDS011;38258;51.148;14.068;2022-08-14T10:37:17;7.72;;;6.65;;
52318;SDS011;38258;51.148;14.068;2022-08-14T10:39:57;7.20;;;5.70;;
52318;SDS011;38258;51.148;14.068;2022-08-14T10:42:33;9.98;;;6.95;;
52318;SDS011;38258;51.148;14.068;2022-08-14T10:45:00;7.30;;;5.97;;
52318;SDS011;38258;51.148;14.068;2022-08-14T10:47:32;8.68;;;6.70;;
52318;SDS011;38258;51.148;14.068;2022-08-14T10:50:00;7.57;;;6.78;;
52318;SDS011;38258;51.148;14.068;2022-08-14T10:52:28;7.75;;;6.22;;
52318;SDS011;38258;51.148;14.068;2022-08-14T10:55:05;7.32;;;6.22;;
52318;SDS011;38258;51.148;14.068;2022-08-14T10:57:33;7.20;;;6.07;;
52318;SDS011;38258;51.148;14.068;2022-08-14T11:00:13;7.57;;;5.30;;
52318;SDS011;38258;51.148;14.068;2022-08-14T11:02:42;8.43;;;6.05;;
52318;SDS011;38258;51.148;14.068;2022-08-14T11:05:09;6.80;;;6.07;;
52318;SDS011;38258;51.148;14.068;2022-08-14T11:07:39;7.35;;;6.00;;
52318;SDS011;38258;51.148;14.068;2022-08-14T11:10:09;6.90;;;6.20;;
52318;SDS011;38258;51.148;14.068;2022-08-14T11:12:39;7.65;;;6.85;;
52318;SDS011;38258;51.148;14.068;2022-08-14T11:15:10;7.17;;;6.47;;
52318;SDS011;38258;51.148;14.068;2022-08-14T11:17:38;7.90;;;6.22;;
52318;SDS011;38258;51.148;14.068;2022-08-14T11:20:05;7.22;;;6.53;;
52318;SDS011;38258;51.148;14.068;2022-08-14T11:22:34;7.90;;;7.10;;
52318;SDS011;38258;51.148;14.068;2022-08-14T11:25:04;8.02;;;7.10;;
52318;SDS011;38258;51.148;14.068;2022-08-14T11:27:34;7.05;;;6.35;;
52318;SDS011;38258;51.148;14.068;2022-08-14T11:30:05;8.98;;;7.22;;
52318;SDS011;38258;51.148;14.068;2022-08-14T11:32:35;8.40;;;7.50;;
52318;SDS011;38258;51.148;14.068;2022-08-14T11:35:05;8.80;;;7.30;;
52318;SDS011;38258;51.148;14.068;2022-08-14T11:37:32;8.43;;;7.15;;
52318;SDS011;38258;51.148;14.068;2022-08-14T11:39:59;10.18;;;7.50;;
52318;SDS011;38258;51.148;14.068;2022-08-14T11:42:26;9.75;;;7.28;;
52318;SDS011;38258;51.148;14.068;2022-08-14T11:44:58;8.90;;;8.00;;
52318;SDS011;38258;51.148;14.068;2022-08-14T11:47:31;9.77;;;7.53;;
52318;SDS011;38258;51.148;14.068;2022-08-14T11:49:58;8.90;;;7.60;;
52318;SDS011;38258;51.148;14.068;2022-08-14T11:52:31;9.38;;;7.32;;
52318;SDS011;38258;51.148;14.068;2022-08-14T11:54:58;8.50;;;7.40;;
52318;SDS011;38258;51.148;14.068;2022-08-14T11:57:25;8.90;;;7.15;;
52318;SDS011;38258;51.148;14.068;2022-08-14T12:00:02;8.52;;;7.50;;
52318;SDS011;38258;51.148;14.068;2022-08-14T12:02:32;8.95;;;7.40;;
52318;SDS011;38258;51.148;14.068;2022-08-14T12:04:58;8.68;;;7.25;;
52318;SDS011;38258;51.148;14.068;2022-08-14T12:07:25;7.85;;;7.05;;
52318;SDS011;38258;51.148;14.068;2022-08-14T12:09:52;8.77;;;7.22;;
52318;SDS011;38258;51.148;14.068;2022-08-14T12:12:20;9.70;;;7.57;;
52318;SDS011;38258;51.148;14.068;2022-08-14T12:14:49;9.88;;;7.72;;
52318;SDS011;38258;51.148;14.068;2022-08-14T12:17:22;8.55;;;7.22;;
52318;SDS011;38258;51.148;14.068;2022-08-14T12:19:49;8.10;;;7.30;;
52318;SDS011;38258;51.148;14.068;2022-08-14T12:22:18;9.13;;;7.45;;
52318;SDS011;38258;51.148;14.068;2022-08-14T12:24:48;7.18;;;5.57;;
52318;SDS011;38258;51.148;14.068;2022-08-14T12:27:15;8.20;;;7.07;;
52318;SDS011;38258;51.148;14.068;2022-08-14T12:29:51;8.00;;;7.13;;
52318;SDS011;38258;51.148;14.068;2022-08-14T12:32:18;10.25;;;7.35;;
52318;SDS011;38258;51.148;14.068;2022-08-14T12:34:51;7.60;;;6.72;;
52318;SDS011;38258;51.148;14.068;2022-08-14T12:37:19;8.10;;;6.93;;
52318;SDS011;38258;51.148;14.068;2022-08-14T12:39:54;7.88;;;7.07;;
52318;SDS011;38258;51.148;14.068;2022-08-14T12:42:21;9.55;;;7.32;;
52318;SDS011;38258;51.148;14.068;2022-08-14T12:44:58;8.30;;;7.25;;
52318;SDS011;38258;51.148;14.068;2022-08-14T12:47:25;9.70;;;7.18;;
52318;SDS011;38258;51.148;14.068;2022-08-14T12:49:56;8.68;;;7.35;;
52318;SDS011;38258;51.148;14.068;2022-08-14T12:52:26;9.85;;;7.30;;
52318;SDS011;38258;51.148;14.068;2022-08-14T12:54:58;8.15;;;7.10;;
52318;SDS011;38258;51.148;14.068;2022-08-14T12:57:33;8.07;;;6.65;;
52318;SDS011;38258;51.148;14.068;2022-08-14T13:00:05;8.32;;;6.95;;
52318;SDS011;38258;51.148;14.068;2022-08-14T13:02:35;8.90;;;7.20;;
52318;SDS011;38258;51.148;14.068;2022-08-14T13:05:05;9.35;;;7.20;;
52318;SDS011;38258;51.148;14.068;2022-08-14T13:07:34;6.95;;;6.03;;
52318;SDS011;38258;51.148;14.068;2022-08-14T13:10:04;9.05;;;6.78;;
52318;SDS011;38258;51.148;14.068;2022-08-14T13:12:31;7.82;;;6.70;;
52318;SDS011;38258;51.148;14.068;2022-08-14T13:14:59;6.85;;;6.15;;
52318;SDS011;38258;51.148;14.068;2022-08-14T13:17:25;7.38;;;6.32;;
52318;SDS011;38258;51.148;14.068;2022-08-14T13:19:54;6.60;;;5.60;;
52318;SDS011;38258;51.148;14.068;2022-08-14T13:22:23;7.78;;;6.00;;
52318;SDS011;38258;51.148;14.068;2022-08-14T13:24:52;7.85;;;5.60;;
52318;SDS011;38258;51.148;14.068;2022-08-14T13:27:19;6.78;;;5.63;;
52318;SDS011;38258;51.148;14.068;2022-08-14T13:29:48;6.60;;;5.72;;
52318;SDS011;38258;51.148;14.068;2022-08-14T13:32:16;8.23;;;5.68;;
52318;SDS011;38258;51.148;14.068;2022-08-14T13:34:43;6.30;;;5.50;;
52318;SDS011;38258;51.148;14.068;2022-08-14T13:37:12;6.43;;;5.30;;
52318;SDS011;38258;51.148;14.068;2022-08-14T13:39:40;6.95;;;5.53;;
52318;SDS011;38258;51.148;14.068;2022-08-14T13:42:11;7.23;;;5.43;;
52318;SDS011;38258;51.148;14.068;2022-08-14T13:44:38;7.03;;;5.88;;
52318;SDS011;38258;51.148;14.068;2022-08-14T13:47:06;7.75;;;5.95;;
52318;SDS011;38258;51.148;14.068;2022-08-14T13:49:33;7.05;;;5.50;;
52318;SDS011;38258;51.148;14.068;2022-08-14T13:52:02;7.82;;;5.60;;
52318;SDS011;38258;51.148;14.068;2022-08-14T13:54:29;7.22;;;5.85;;
52318;SDS011;38258;51.148;14.068;2022-08-14T13:57:00;6.43;;;5.53;;
52318;SDS011;38258;51.148;14.068;2022-08-14T13:59:27;7.50;;;4.82;;
52318;SDS011;38258;51.148;14.068;2022-08-14T14:01:56;7.38;;;5.15;;
52318;SDS011;38258;51.148;14.068;2022-08-14T14:04:29;7.78;;;5.68;;
52318;SDS011;38258;51.148;14.068;2022-08-14T14:06:58;6.60;;;5.35;;
52318;SDS011;38258;51.148;14.068;2022-08-14T14:09:27;6.32;;;5.30;;
52318;SDS011;38258;51.148;14.068;2022-08-14T14:11:57;7.15;;;5.63;;
52318;SDS011;38258;51.148;14.068;2022-08-14T14:14:25;7.72;;;6.13;;
52318;SDS011;38258;51.148;14.068;2022-08-14T14:16:52;7.35;;;5.30;;
52318;SDS011;38258;51.148;14.068;2022-08-14T14:19:20;7.40;;;5.43;;
52318;SDS011;38258;51.148;14.068;2022-08-14T14:21:48;6.85;;;5.15;;
52318;SDS011;38258;51.148;14.068;2022-08-14T14:24:15;7.45;;;5.35;;
52318;SDS011;38258;51.148;14.068;2022-08-14T14:26:44;8.70;;;5.80;;
52318;SDS011;38258;51.148;14.068;2022-08-14T14:29:11;6.95;;;5.15;;
52318;SDS011;38258;51.148;14.068;2022-08-14T14:31:40;7.78;;;5.45;;
52318;SDS011;38258;51.148;14.068;2022-08-14T14:34:07;7.10;;;5.40;;
52318;SDS011;38258;51.148;14.068;2022-08-14T14:36:34;6.78;;;5.10;;
52318;SDS011;38258;51.148;14.068;2022-08-14T14:39:02;7.22;;;5.40;;
52318;SDS011;38258;51.148;14.068;2022-08-14T14:41:34;9.18;;;5.78;;
52318;SDS011;38258;51.148;14.068;2022-08-14T14:44:04;7.53;;;5.75;;
52318;SDS011;38258;51.148;14.068;2022-08-14T14:46:32;6.60;;;5.90;;